• Join FlightAware (Why Join?)
  • Login
  • US Flag 
07:56PM EDT


 

Airport Tracker/Info


-or-


 

Live Flight TrackerFlight Track Log ✈ AWE1788 ✈ 12-Jun-2013 ✈ KCLT - KORD

Flight Track Log - Related Links

Times and Time Zones

All times are in EDT time to prevent confusion due to time zone crossing. See the AWE1788 flight status page for this flight to view local times or setup timezone preferences in your user account.

Time Position Orientation Groundspeed Altitude Reporting Facility
EDT Latitude Longitude Course Direction KTS MPH feet Rate Location/Type
11:14PM 35.1880 -80.9790 228° Southwest 184 212 2,700  Level FlightAware
11:14PM 35.1790 -80.9940 234° Southwest 202 232 2,900 1,080 Climbing FlightAware
11:14PM 35.1720 -81.0270 255° West 228 262 3,500 1,320 Climbing FlightAware
11:15PM 35.1650 -81.0610 256° West 250 288 4,100 1,620 Climbing FlightAware
11:15PM 35.1590 -81.0910 256° West 261 300 4,800 2,100 Climbing FlightAware
11:16PM 35.1490 -81.1380 255° West 266 306 6,100 2,160 Climbing FlightAware
11:16PM 35.1400 -81.1830 256° West 277 319 7,100 1,980 Climbing FlightAware
11:17PM 35.1340 -81.2270 261° West 280 322 8,000 1,800 Climbing FlightAware
11:17PM 35.1360 -81.2700 273° West 287 330 8,800 1,860 Climbing FlightAware
11:17PM 35.1380 -81.3030 274° West 294 338 9,500 1,860 Climbing FlightAware
11:18PM 35.1410 -81.3670 273° West 308 354 10,600 1,260 Climbing FlightAware
11:19PM 35.1470 -81.4610 274° West 351 404 11,400 1,260 Climbing FlightAware
11:20PM 35.1460 -81.5440 269° West 372 428 12,500 1,860 Climbing FlightAware
11:20PM 35.1390 -81.6340 265° West 376 433 14,000 2,040 Climbing FlightAware
11:21PM 35.1330 -81.7220 265° West 380 437 15,400 1,860 Climbing FlightAware
11:22PM 35.1260 -81.8080 264° West 388 447 16,600 1,800 Climbing FlightAware
11:22PM 35.1480 -81.9050 286° West 391 450 18,000 1,800 Climbing FlightAware
11:23PM 35.1780 -81.9910 293° West 393 452 19,300 1,140 Climbing FlightAware
11:24PM 35.2160 -82.1030 293° West 405 466 19,900 1,380 Climbing FlightAware
11:25PM 35.2440 -82.1840 293° West 411 473 21,500 1,980 Climbing FlightAware
11:25PM 35.2660 -82.2464 293° West 420 483 22,000 960 Climbing FlightAware ADS-B
11:26PM 35.2965 -82.3348 293° West 432 497 22,600 1,020 Climbing FlightAware ADS-B
11:26PM 35.3199 -82.4030 293° West 435 501 23,200 1,380 Climbing FlightAware ADS-B
11:27PM 35.3466 -82.4814 293° West 433 498 24,100 1,380 Climbing FlightAware ADS-B
11:27PM 35.3699 -82.5493 293° West 433 498 24,700 1,320 Climbing FlightAware ADS-B
11:28PM 35.3936 -82.6188 293° West 431 496 25,500 1,140 Climbing FlightAware ADS-B
11:28PM 35.4169 -82.6875 293° West 435 501 25,900 780 Climbing FlightAware ADS-B
11:29PM 35.4405 -82.7569 293° West 442 509 26,300 900 Climbing FlightAware ADS-B
11:29PM 35.4641 -82.8266 293° West 444 511 26,800 840 Climbing FlightAware ADS-B
11:30PM 35.4879 -82.8971 293° West 447 514 27,200 780 Climbing FlightAware ADS-B
11:30PM 35.5117 -82.9677 293° West 449 517 27,600 900 Climbing FlightAware ADS-B
11:31PM 35.5358 -83.0394 292° West 451 519 28,100 1,080 Climbing FlightAware ADS-B
11:31PM 35.5601 -83.1117 292° West 448 516 28,700 1,260 Climbing FlightAware ADS-B
11:32PM 35.5840 -83.1829 292° West 444 511 29,400 1,320 Climbing FlightAware ADS-B
11:32PM 35.6077 -83.2539 292° West 440 506 30,100 1,080 Climbing FlightAware ADS-B
11:33PM 35.6309 -83.3235 292° West 440 506 30,500 900 Climbing FlightAware ADS-B
11:33PM 35.6543 -83.3941 292° West 440 506 31,000 1,080 Climbing FlightAware ADS-B
11:34PM 35.6781 -83.4657 292° West 437 503 31,600 1,080 Climbing FlightAware ADS-B
11:34PM 35.7008 -83.5346 292° West 434 499 32,100 780 Climbing FlightAware ADS-B
11:35PM 35.7242 -83.6055 292° West 435 501 32,400 720 Climbing FlightAware ADS-B
11:35PM 35.7469 -83.6746 292° West 433 498 32,900 960 Climbing FlightAware ADS-B
11:36PM 35.7702 -83.7454 292° West 431 496 33,400 840 Climbing FlightAware ADS-B
11:36PM 35.7930 -83.8152 292° West 430 495 33,800 540 Climbing FlightAware ADS-B
11:37PM 35.8153 -83.8836 292° West 432 497 34,000 180 Climbing FlightAware ADS-B
11:37PM 35.8380 -83.9530 292° West 429 494 34,000  Level FlightAware ADS-B
11:38PM 35.8602 -84.0209 292° West 427 491 34,000  Level FlightAware ADS-B
11:38PM 35.8828 -84.0908 292° West 430 495 34,000  Level FlightAware ADS-B
11:39PM 35.9056 -84.1612 292° West 430 495 34,000  Level FlightAware ADS-B
11:39PM 35.9280 -84.2290 292° West 429 494 34,000  Level FlightAware
11:40PM 35.9341 -84.2492 290° West 429 494 34,000  Level FlightAware ADS-B
11:40PM 35.9604 -84.3311 292° West 428 493 34,000  Level FlightAware ADS-B
11:41PM 35.9870 -84.4137 292° West 427 491 34,000  Level FlightAware ADS-B
11:42PM 36.0180 -84.5110 292° West 426 490 34,000  Level FlightAware
11:42PM 36.0260 -84.5353 292° West 426 490 34,000  Level FlightAware ADS-B
11:42PM 36.0477 -84.6032 292° West 426 490 34,000  Level FlightAware ADS-B
11:43PM 36.0699 -84.6730 291° West 427 491 34,000  Level FlightAware ADS-B
11:43PM 36.0918 -84.7418 292° West 427 491 34,000  Level FlightAware ADS-B
11:44PM 36.1137 -84.8110 291° West 428 493 34,000  Level FlightAware ADS-B
11:44PM 36.1355 -84.8800 291° West 428 493 34,000  Level FlightAware ADS-B
11:45PM 36.1573 -84.9489 291° West 429 494 34,000  Level FlightAware ADS-B
11:45PM 36.1789 -85.0175 291° West 428 493 34,000  Level FlightAware ADS-B
11:46PM 36.2005 -85.0860 291° West 429 494 34,000  Level FlightAware ADS-B
11:46PM 36.2225 -85.1563 291° West 429 494 34,000  Level FlightAware ADS-B
11:47PM 36.2509 -85.2471 291° West 429 494 34,000  Level FlightAware ADS-B
11:47PM 36.2724 -85.3159 291° West 428 493 34,000  Level FlightAware ADS-B
11:48PM 36.3097 -85.4362 291° West 428 493 34,000  Level FlightAware ADS-B
11:49PM 36.3309 -85.5051 291° West 428 493 34,000  Level FlightAware ADS-B
11:50PM 36.3770 -85.6544 291° West 427 491 34,000  Level FlightAware ADS-B
11:50PM 36.3980 -85.7229 291° West 426 490 34,000  Level FlightAware ADS-B
11:51PM 36.4191 -85.7917 291° West 424 488 34,000  Level FlightAware ADS-B
11:51PM 36.4404 -85.8615 291° West 423 487 34,000  Level FlightAware ADS-B
11:52PM 36.4655 -85.9439 291° West 423 487 34,000  Level FlightAware ADS-B
11:53PM 36.4863 -86.0123 291° West 421 484 34,000  Level FlightAware ADS-B
11:53PM 36.5070 -86.0805 291° West 420 483 34,000  Level FlightAware ADS-B
11:54PM 36.5276 -86.1485 291° West 421 484 34,000  Level FlightAware ADS-B
11:54PM 36.5510 -86.2270 290° West 420 483 34,000  Level FlightAware
11:55PM 36.5881 -86.3499 291° West 420 483 34,000  Level FlightAware ADS-B
11:56PM 36.6091 -86.4195 291° West 419 482 34,000  Level FlightAware ADS-B
11:56PM 36.6294 -86.4874 290° West 418 481 34,000  Level FlightAware ADS-B
11:57PM 36.6501 -86.5570 290° West 418 481 34,000  Level FlightAware ADS-B
11:57PM 36.6702 -86.6247 290° West 418 481 34,000  Level FlightAware ADS-B
11:58PM 36.6907 -86.6938 290° West 416 479 34,000  Level FlightAware ADS-B
11:58PM 36.7110 -86.7627 290° West 416 479 34,000  Level FlightAware ADS-B
11:59PM 36.7313 -86.8310 290° West 416 479 34,000  Level FlightAware ADS-B
11:59PM 36.7552 -86.9121 290° West 415 478 34,000  Level FlightAware ADS-B
12:00AM 36.7760 -86.9840 290° West 412 474 34,000  Level FlightAware
12:00AM 36.7976 -87.0570 290° West 411 473 34,000  Level FlightAware ADS-B
12:01AM 36.8350 -87.1860 290° West 406 467 34,000  Level FlightAware
12:01AM 36.8446 -87.2179 291° West 406 467 34,000  Level FlightAware ADS-B
12:03AM 36.8860 -87.3610 290° West 408 470 34,000  Level FlightAware
12:03AM 36.9160 -87.4640 290° West 409 471 34,000  Level FlightAware
12:04AM 36.9400 -87.5490 289° West 411 473 34,000  Level FlightAware
12:05AM 36.9680 -87.6440 290° West 413 475 34,000 60 Level FlightAware
12:05AM 36.9900 -87.7220 289° West 413 475 34,100 60 Climbing FlightAware
12:06AM 37.0230 -87.8400 289° West 411 473 34,100 -120 Level FlightAware
12:07AM 37.0460 -87.9210 290° West 410 472 34,000 -120 Descending FlightAware
12:07AM 37.0710 -88.0070 290° West 409 471 34,000  Level FlightAware
12:08AM 37.1060 -88.1320 289° West 408 470 34,000  Level FlightAware
12:09AM 37.1330 -88.2280 289° West 412 474 34,000  Level FlightAware
12:10AM 37.1820 -88.4040 289° West 413 475 34,100  Climbing FlightAware
12:11AM 37.2020 -88.4760 289° West 412 474 34,100 -120 Level FlightAware
12:12AM 37.2320 -88.5830 289° West 411 473 34,000 -120 Descending FlightAware
12:12AM 37.2520 -88.6570 289° West 411 473 34,000  Level FlightAware
12:13AM 37.2840 -88.7740 289° West 410 472 34,000  Level FlightAware
12:14AM 37.3110 -88.8720 289° West 410 472 34,000  Level FlightAware
12:14AM 37.3350 -88.9610 289° West 411 473 34,000  Level FlightAware
12:15AM 37.3690 -89.0870 289° West 411 473 34,000  Level FlightAware
12:16AM 37.3860 -89.1530 288° West 411 473 34,000  Level FlightAware
12:17AM 37.4100 -89.2480 288° West 411 473 34,000  Level FlightAware
12:17AM 37.4280 -89.3180 288° West 411 473 34,000  Level FlightAware
12:18AM 37.4520 -89.4100 288° West 411 473 34,000  Level FlightAware
12:19AM 37.4710 -89.4840 288° West 411 473 34,000  Level FlightAware
12:20AM 37.4900 -89.5560 288° West 411 473 34,000  Level FlightAware
12:20AM 37.5080 -89.6250 288° West 411 473 34,000  Level FlightAware
12:21AM 37.5320 -89.7190 288° West 411 473 34,000  Level FlightAware
12:22AM 37.5490 -89.7880 287° West 411 473 34,000  Level FlightAware
12:22AM 37.5730 -89.8810 288° West 411 473 34,000  Level FlightAware
12:23AM 37.5920 -89.9530 288° West 411 473 34,000  Level FlightAware
12:24AM 37.6160 -90.0480 288° West 411 473 34,000  Level FlightAware
12:24AM 37.8810 -89.8240 34° Northeast 478 550 34,000  Level FlightAware
12:25AM 37.9190 -89.7230 64° Northeast 481 554 34,000  Level FlightAware
12:25AM 37.9540 -89.6290 65° Northeast 481 554 34,000  Level FlightAware
12:26AM 38.0010 -89.5060 64° Northeast 483 556 34,000  Level FlightAware
12:27AM 38.0440 -89.3920 64° Northeast 484 557 34,000  Level FlightAware
12:28AM 38.0780 -89.3040 64° Northeast 485 558 34,000  Level FlightAware
12:28AM 38.1320 -89.1820 61° Northeast 475 547 34,000  Level FlightAware
12:29AM 38.1800 -89.1290 41° Northeast 460 529 34,000  Level FlightAware
12:30AM 38.2570 -89.0930 20° North 439 505 34,000  Level FlightAware
12:31AM 38.3690 -89.1030 356° North 430 495 34,000  Level FlightAware
12:31AM 38.4510 -89.1150 353° North 433 498 34,000 60 Level FlightAware
12:32AM 38.5300 -89.1280 353° North 429 494 34,100  Climbing FlightAware
12:33AM 38.5990 -89.1700 335° Northwest 414 476 34,000 -120 Descending FlightAware
12:33AM 38.6480 -89.2610 305° West 407 468 34,000  Level FlightAware
12:34AM 38.6660 -89.3560 284° West 397 457 34,000  Level FlightAware
12:35AM 38.6840 -89.4580 283° West 394 453 34,000  Level FlightAware
12:35AM 38.6950 -89.5190 283° West 395 455 34,000  Level FlightAware
12:36AM 38.7180 -89.6510 283° West 395 455 34,000  Level FlightAware
12:37AM 38.7350 -89.7440 283° West 394 453 34,000  Level FlightAware
12:38AM 38.7520 -89.8440 282° West 393 452 34,000  Level FlightAware
12:38AM 38.7850 -89.9640 289° West 386 444 34,000  Level FlightAware
12:39AM 38.8300 -90.0140 319° Northwest 391 450 34,000  Level FlightAware
12:40AM 38.9090 -90.0780 328° Northwest 391 450 34,000  Level FlightAware
12:40AM 38.9630 -90.0680 North 401 461 34,000  Level FlightAware
12:41AM 39.0430 -90.0970 344° North 403 464 34,000  Level FlightAware
12:42AM 39.1160 -90.1230 345° North 403 464 34,000  Level FlightAware
12:42AM 39.1810 -90.1460 345° North 402 463 34,000  Level FlightAware
12:43AM 39.2910 -90.1850 345° North 400 460 34,000  Level FlightAware
12:44AM 39.3690 -90.2130 344° North 401 461 34,000  Level FlightAware
12:45AM 39.4410 -90.2390 344° North 403 464 34,000  Level FlightAware
12:45AM 39.5180 -90.2670 344° North 407 468 34,000  Level FlightAware
12:46AM 39.5980 -90.2960 344° North 410 472 34,000  Level FlightAware
12:47AM 39.6680 -90.3220 344° North 411 473 34,000 -180 Level FlightAware
12:48AM 39.7490 -90.3470 347° North 417 480 33,800 -540 Descending FlightAware
12:48AM 39.8040 -90.3420 North 434 499 33,400 -720 Descending FlightAware
12:49AM 39.8800 -90.3040 21° North 448 516 33,000 -300 Descending FlightAware
12:49AM 39.9640 -90.2580 23° Northeast 447 514 33,000  Level FlightAware
12:50AM 40.0440 -90.2140 23° Northeast 442 509 33,000  Level FlightAware
12:51AM 40.1280 -90.1680 23° Northeast 444 511 33,000 60 Level FlightAware
12:52AM 40.2050 -90.1250 23° Northeast 445 512 33,100  Climbing FlightAware
12:52AM 40.2800 -90.0840 23° Northeast 445 512 33,000 -240 Descending FlightAware
12:53AM 40.3650 -90.0360 23° Northeast 448 516 32,800 -600 Descending FlightAware
12:54AM 40.4360 -89.9970 23° Northeast 453 521 32,200 -960 Descending FlightAware
12:54AM 40.5240 -89.9480 23° Northeast 453 521 31,500 -900 Descending FlightAware
12:55AM 40.5780 -89.9170 24° Northeast 455 524 31,000 -1,020 Descending FlightAware
12:56AM 40.6850 -89.8570 23° Northeast 444 511 30,100 -1,560 Descending FlightAware
12:56AM 40.7680 -89.8100 23° Northeast 440 506 28,900 -1,620 Descending FlightAware
12:57AM 40.8440 -89.7670 23° Northeast 433 498 27,800 -1,620 Descending FlightAware
12:58AM 40.9160 -89.7270 23° Northeast 427 491 26,800 -1,560 Descending FlightAware
12:59AM 41.0000 -89.6790 23° Northeast 421 484 25,600 -1,620 Descending FlightAware
12:59AM 41.0720 -89.6380 23° Northeast 418 481 24,500 -1,620 Descending FlightAware
01:00AM 41.1440 -89.5920 26° Northeast 425 489 23,400 -1,680 Descending FlightAware
01:01AM 41.1940 -89.5040 53° Northeast 458 527 22,200 -1,620 Descending FlightAware
01:01AM 41.2320 -89.4100 62° Northeast 453 521 21,200 -1,560 Descending FlightAware
01:02AM 41.2780 -89.2950 62° Northeast 443 510 20,000 -1,680 Descending FlightAware
01:03AM 41.3170 -89.1980 62° Northeast 438 504 18,900 -1,680 Descending FlightAware
01:03AM 41.3590 -89.0940 62° Northeast 430 495 17,700 -1,500 Descending FlightAware
01:04AM 41.3960 -89.0010 62° Northeast 405 466 16,800 -2,400 Descending FlightAware
01:05AM 41.4460 -88.8750 62° Northeast 394 453 13,800 -3,120 Descending FlightAware
01:06AM 41.4790 -88.7930 62° Northeast 384 442 11,800 -1,860 Descending FlightAware
01:06AM 41.5150 -88.7020 62° Northeast 348 400 11,200 -420 Descending FlightAware
01:07AM 41.5440 -88.6270 63° Northeast 332 382 11,200  Level FlightAware
01:08AM 41.5740 -88.5520 62° Northeast 333 383 11,200 -360 Level FlightAware
01:09AM 41.6010 -88.4690 66° East 332 382 10,700 -960 Descending FlightAware
01:09AM 41.6260 -88.3940 66° East 322 371 9,900 -1,620 Descending FlightAware
01:10AM 41.6520 -88.3150 66° East 311 358 8,500 -1,740 Descending FlightAware
01:10AM 41.6660 -88.2700 67° East 306 352 7,900 -1,320 Descending FlightAware
01:11AM 41.6970 -88.2020 59° Northeast 283 326 7,000 -1,260 Descending FlightAware
01:12AM 41.7220 -88.1720 42° Northeast 271 312 6,500 -1,200 Descending FlightAware
01:12AM 41.7500 -88.1400 40° Northeast 261 300 5,900 -1,440 Descending FlightAware
01:12AM 41.7720 -88.1130 42° Northeast 264 304 5,200 -1,260 Descending FlightAware
01:13AM 41.7920 -88.0900 41° Northeast 252 290 4,900 -1,020 Descending FlightAware
01:13AM 41.8240 -88.0520 42° Northeast 245 282 4,200 -1,200 Descending FlightAware
01:14AM 41.8410 -88.0330 40° Northeast 238 274 3,800 -1,320 Descending FlightAware
01:14AM 41.8650 -88.0040 42° Northeast 217 250 3,100 -1,080 Descending FlightAware
01:15AM 41.9000 -87.9630 41° Northeast 159 183 2,300 -900 Descending FlightAware
01:15AM 41.9050 -87.9560 46° Northeast 152 175 2,100 -780 Descending FlightAware
01:16AM 41.9200 -87.9390 40° Northeast 150 173 1,800 -780 Descending FlightAware
01:16AM 41.9340 -87.9220 42° Northeast 155 178 1,400 -900 Descending FlightAware
01:17AM 41.9510 -87.9020 41° Northeast 155 178 1,000 -840 Descending FlightAware
01:17AM 41.9650 -87.8860 40° Northeast 84 97 -2,160 Descending FlightAware
01:18AM 41.9700 -87.8790 46° Northeast 70 81  Level FlightAware
01:19AM 41.9720 -87.8830 304° West 27 31  Level FlightAware
01:19AM 41.9720 -87.8840 270° West 30 35  Level FlightAware
01:19AM 41.9720 -87.8850 270° West 33 38  Level FlightAware
01:24AM 41.9667 -87.9000 37° Northeast  Level FlightAware Approximate
01:25AM 41.9817 -87.9067 37° Northeast  Level Estimated